Time;durP1;ratioP1;P1;durP2;ratioP2;P2;SDS_P1;SDS_P2;PMS_P1;PMS_P2;Temp;Humidity;BMP_temperature;BMP_pressure;BME280_temperature;BME280_humidity;BME280_pressure;Samples;Min_cycle;Max_cycle;Signal;HPM_P1;HPM_P2
2020/12/04 00:00:15;;;;;;;32.38;15.73;;;;;;;5.42;59.48;98951.66;4410601;32;20102;-86
2020/12/04 00:02:40;;;;;;;33.50;15.95;;;;;;;5.46;59.48;98955.88;4410681;32;20496;-87
2020/12/04 00:05:10;;;;;;;30.30;16.10;;;;;;;5.53;59.49;98953.09;4423331;32;20089;-86
2020/12/04 00:07:36;;;;;;;39.08;17.58;;;;;;;5.24;59.48;98958.97;4411603;32;20106;-88
2020/12/04 00:10:01;;;;;;;36.17;17.37;;;;;;;5.42;59.48;98954.22;4412064;32;20180;-89
2020/12/04 00:12:27;;;;;;;31.58;15.48;;;;;;;5.45;59.48;98954.19;4412007;32;20114;-88
2020/12/04 00:14:52;;;;;;;33.08;16.70;;;;;;;5.06;59.46;98959.38;4412520;32;20153;-88
2020/12/04 00:17:18;;;;;;;31.95;14.98;;;;;;;5.02;59.46;98942.28;4412216;32;20135;-90
2020/12/04 00:19:43;;;;;;;34.58;16.20;;;;;;;5.13;59.47;98929.13;4412049;32;20144;-89
2020/12/04 00:22:08;;;;;;;35.42;16.75;;;;;;;5.24;59.47;98929.75;4412292;32;20093;-89
2020/12/04 00:24:34;;;;;;;34.50;17.10;;;;;;;5.10;59.47;98936.94;4424766;32;20098;-88
2020/12/04 00:26:59;;;;;;;37.50;16.33;;;;;;;5.41;59.48;98944.78;4411846;32;20453;-89
2020/12/04 00:29:26;;;;;;;35.80;16.02;;;;;;;5.21;59.47;98943.56;4424552;32;20133;-89
2020/12/04 00:31:52;;;;;;;32.63;17.10;;;;;;;5.41;59.48;98939.63;4412192;32;20108;-89
2020/12/04 00:34:18;;;;;;;32.80;16.05;;;;;;;5.32;59.48;98939.88;4411516;32;20081;-89
2020/12/04 00:36:47;;;;;;;36.20;17.40;;;;;;;5.39;59.48;98941.41;4411660;32;20137;-88
2020/12/04 00:39:13;;;;;;;33.58;16.17;;;;;;;5.26;59.48;98943.44;4411679;32;20135;-88
2020/12/04 00:41:38;;;;;;;33.60;16.15;;;;;;;5.00;59.46;98928.56;4411418;32;20417;-88
2020/12/04 00:44:04;;;;;;;33.33;16.70;;;;;;;4.82;59.45;98928.97;4410821;32;25070;-88
2020/12/04 00:46:30;;;;;;;36.00;17.02;;;;;;;4.92;59.45;98931.31;4423372;32;20136;-87
2020/12/04 00:48:55;;;;;;;35.17;16.10;;;;;;;4.90;59.45;98934.81;4423441;32;20422;-87
2020/12/04 00:51:20;;;;;;;38.45;16.87;;;;;;;4.95;59.46;98927.81;4423441;32;20141;-87
2020/12/04 00:53:46;;;;;;;35.63;16.35;;;;;;;4.86;59.45;98931.44;4422950;32;20133;-87
2020/12/04 00:56:11;;;;;;;35.03;15.95;;;;;;;4.79;59.45;98929.03;4423353;32;20120;-88
2020/12/04 00:58:37;;;;;;;36.45;16.48;;;;;;;4.72;59.45;98922.31;4411362;32;20224;-87
2020/12/04 01:01:03;;;;;;;40.38;18.10;;;;;;;4.54;59.43;98924.41;4410414;32;20137;-87
2020/12/04 01:03:28;;;;;;;34.70;16.50;;;;;;;4.62;59.44;98927.66;4423432;32;20089;-87
2020/12/04 01:05:54;;;;;;;37.13;17.87;;;;;;;4.65;59.44;98920.75;4410820;32;20190;-87
2020/12/04 01:08:20;;;;;;;35.42;15.65;;;;;;;4.76;59.45;98911.06;4410593;32;20121;-87
2020/12/04 01:10:45;;;;;;;32.70;16.90;;;;;;;4.57;59.44;98918.34;4423182;32;20112;-88
2020/12/04 01:13:10;;;;;;;35.28;15.77;;;;;;;4.35;59.43;98915.34;4410588;32;20180;-87
2020/12/04 01:15:36;;;;;;;42.47;17.58;;;;;;;4.50;59.44;98912.47;4422996;32;20501;-88
2020/12/04 01:18:01;;;;;;;37.17;18.67;;;;;;;4.25;59.41;98913.81;4410871;32;20089;-87
2020/12/04 01:20:27;;;;;;;33.80;16.20;;;;;;;4.45;59.43;98910.84;4409321;32;20188;-86
2020/12/04 01:22:52;;;;;;;34.08;16.33;;;;;;;4.49;59.44;98899.59;4423974;32;20172;-87
2020/12/04 01:25:17;;;;;;;38.38;17.52;;;;;;;4.43;59.43;98915.19;4423237;32;20093;-86
2020/12/04 01:27:43;;;;;;;35.88;16.77;;;;;;;4.28;59.42;98913.78;4410561;32;20422;-87
2020/12/04 01:30:08;;;;;;;35.85;16.65;;;;;;;4.20;59.42;98921.66;4409913;32;20410;-88
2020/12/04 01:32:34;;;;;;;35.50;17.23;;;;;;;4.35;59.42;98909.34;4423507;32;20164;-87
2020/12/04 01:34:59;;;;;;;37.85;16.15;;;;;;;4.20;59.42;98901.03;4423520;32;20105;-87
2020/12/04 01:37:24;;;;;;;38.28;17.10;;;;;;;4.30;59.42;98891.44;4423450;32;20143;-87
2020/12/04 01:39:50;;;;;;;36.58;17.65;;;;;;;4.12;59.42;98899.50;4410005;32;20152;-88
2020/12/04 01:42:15;;;;;;;35.90;16.77;;;;;;;4.17;59.41;98889.97;4409970;32;20156;-87
2020/12/04 01:44:41;;;;;;;33.60;17.23;;;;;;;4.22;59.42;98888.13;4410012;32;20399;-86
2020/12/04 01:47:06;;;;;;;36.03;16.83;;;;;;;4.23;59.42;98882.09;4410282;32;20105;-87
2020/12/04 01:49:34;;;;;;;36.83;16.40;;;;;;;4.11;59.40;98879.78;4423108;32;20105;-87
2020/12/04 01:52:00;;;;;;;37.60;16.87;;;;;;;4.07;59.41;98879.00;4410065;32;20097;-88
2020/12/04 01:54:25;;;;;;;32.65;15.88;;;;;;;4.18;59.42;98874.47;4422466;32;20553;-87
2020/12/04 01:56:51;;;;;;;31.98;15.45;;;;;;;4.20;59.42;98880.44;4410078;32;20121;-86
2020/12/04 01:59:16;;;;;;;32.28;16.50;;;;;;;4.30;59.42;98863.94;4411709;32;20098;-90
2020/12/04 02:01:45;;;;;;;35.35;16.27;;;;;;;4.22;59.42;98849.50;4411619;32;20518;-90
2020/12/04 02:04:13;;;;;;;36.38;16.62;;;;;;;4.38;59.42;98843.16;4411798;32;20481;-88
2020/12/04 02:06:51;;;;;;;34.28;16.83;;;;;;;4.36;59.43;98844.91;4411529;32;20097;-89
2020/12/04 02:09:26;;;;;;;29.70;14.75;;;;;;;4.26;59.41;98840.84;4424205;32;20174;-87
2020/12/04 02:11:52;;;;;;;36.47;15.95;;;;;;;4.13;59.41;98841.97;4412305;32;20728;-89
2020/12/04 02:14:18;;;;;;;37.53;16.70;;;;;;;4.24;59.42;98830.56;4411644;32;20520;-90
2020/12/04 02:16:45;;;;;;;38.25;16.40;;;;;;;4.34;59.42;98833.81;4411651;32;20149;-90
2020/12/04 02:19:11;;;;;;;33.40;15.18;;;;;;;4.19;59.41;98837.53;4411278;32;20102;-90
2020/12/04 02:21:37;;;;;;;35.13;16.70;;;;;;;4.07;59.41;98835.22;4411234;32;20117;-89
2020/12/04 02:24:03;;;;;;;34.85;16.52;;;;;;;4.08;59.41;98833.50;4411538;32;20118;-88
2020/12/04 02:26:28;;;;;;;36.08;15.93;;;;;;;4.21;59.42;98838.34;4411349;32;20121;-89
2020/12/04 02:28:54;;;;;;;38.20;16.70;;;;;;;4.21;59.42;98833.19;4411258;32;20154;-88
2020/12/04 02:31:21;;;;;;;34.25;15.23;;;;;;;3.97;59.41;98844.84;4412327;32;20149;-89
2020/12/04 02:33:48;;;;;;;32.53;14.52;;;;;;;4.10;59.41;98839.47;4413834;32;20093;-90
2020/12/04 02:36:14;;;;;;;38.67;16.70;;;;;;;3.98;59.41;98840.53;4426440;32;20429;-90
2020/12/04 02:38:39;;;;;;;34.88;16.17;;;;;;;4.13;59.41;98834.25;4413011;32;20102;-90
2020/12/04 02:41:08;;;;;;;30.00;15.07;;;;;;;4.15;59.41;98835.06;4425678;32;20105;-90
2020/12/04 02:43:34;;;;;;;33.83;16.30;;;;;;;4.23;59.42;98836.59;4426075;32;20140;-90
2020/12/04 02:45:59;;;;;;;34.40;16.12;;;;;;;4.12;59.42;98840.28;4413325;32;20108;-90
2020/12/04 02:48:25;;;;;;;32.25;15.40;;;;;;;4.18;59.41;98843.56;4413331;32;20409;-90
2020/12/04 02:50:50;;;;;;;35.55;15.88;;;;;;;4.29;59.42;98845.94;4412960;32;20482;-89
2020/12/04 02:53:15;;;;;;;31.52;15.75;;;;;;;4.20;59.42;98849.53;4413119;32;20175;-89
2020/12/04 02:55:41;;;;;;;32.45;16.20;;;;;;;4.18;59.41;98845.28;4412998;32;20161;-89
2020/12/04 02:58:07;;;;;;;36.53;14.93;;;;;;;3.91;59.40;98847.56;4412901;32;20141;-89
2020/12/04 03:00:33;;;;;;;34.72;15.00;;;;;;;4.17;59.41;98830.72;4413194;32;20120;-89
2020/12/04 03:02:58;;;;;;;31.02;15.27;;;;;;;4.25;59.41;98823.66;4413171;32;20106;-89
2020/12/04 03:05:23;;;;;;;35.13;17.12;;;;;;;4.39;59.42;98813.09;4425636;32;20172;-89
2020/12/04 03:07:49;;;;;;;33.35;16.20;;;;;;;4.47;59.43;98806.88;4412572;32;20098;-89
2020/12/04 03:10:14;;;;;;;31.67;15.45;;;;;;;4.22;59.42;98808.28;4425398;32;20430;-89
2020/12/04 03:12:40;;;;;;;29.55;14.73;;;;;;;4.22;59.42;98808.28;4412865;32;20398;-88
2020/12/04 03:15:05;;;;;;;35.40;15.45;;;;;;;4.21;59.42;98822.03;4413136;32;20171;-89
2020/12/04 03:17:32;;;;;;;29.80;15.88;;;;;;;4.34;59.42;98828.66;4412894;32;20408;-89
2020/12/04 03:19:57;;;;;;;32.63;15.40;;;;;;;4.44;59.43;98835.28;4412552;32;20119;-89
2020/12/04 03:22:26;;;;;;;31.17;16.27;;;;;;;4.26;59.41;98835.69;4411940;32;20114;-89
2020/12/04 03:24:51;;;;;;;35.25;14.40;;;;;;;4.17;59.41;98835.87;4412378;32;20170;-88
2020/12/04 03:27:17;;;;;;;34.80;16.10;;;;;;;4.10;59.41;98831.75;4412068;32;20097;-87
2020/12/04 03:29:42;;;;;;;33.22;15.50;;;;;;;4.28;59.42;98823.62;4425069;32;20169;-88
2020/12/04 03:32:08;;;;;;;34.38;15.07;;;;;;;4.21;59.42;98811.75;4411750;32;20109;-87
2020/12/04 03:34:33;;;;;;;35.75;15.55;;;;;;;4.21;59.42;98806.59;4412113;32;20149;-88
2020/12/04 03:36:59;;;;;;;34.60;16.02;;;;;;;4.41;59.42;98817.31;4412131;32;20098;-88
2020/12/04 03:39:24;;;;;;;34.10;15.68;;;;;;;4.44;59.43;98819.81;4425134;32;20113;-89
2020/12/04 03:41:49;;;;;;;33.70;14.87;;;;;;;4.47;59.43;98814.59;4412476;32;20105;-87
2020/12/04 03:44:15;;;;;;;32.35;15.60;;;;;;;4.27;59.42;98821.94;4423970;32;20158;-88
2020/12/04 03:46:43;;;;;;;30.83;15.35;;;;;;;4.17;59.41;98823.84;4408888;32;93560;-87
2020/12/04 03:49:10;;;;;;;30.35;15.30;;;;;;;4.46;59.42;98812.91;4412267;32;20098;-90
2020/12/04 03:51:35;;;;;;;30.95;14.70;;;;;;;4.39;59.42;98805.34;4412943;32;20105;-89
2020/12/04 03:54:01;;;;;;;33.72;15.50;;;;;;;4.58;59.43;98791.19;4412840;32;20146;-90
2020/12/04 03:56:26;;;;;;;34.55;14.93;;;;;;;4.63;59.43;98799.66;4412686;32;20116;-88
2020/12/04 03:58:52;;;;;;;27.15;14.27;;;;;;;4.77;59.44;98807.06;4412068;32;21550;-88
2020/12/04 04:01:17;;;;;;;30.37;14.20;;;;;;;4.73;59.45;98790.84;4424523;32;20101;-88
2020/12/04 04:03:43;;;;;;;31.33;15.05;;;;;;;4.76;59.44;98808.81;4412551;32;20152;-89
2020/12/04 04:06:08;;;;;;;28.35;14.80;;;;;;;4.37;59.43;98807.97;4411862;32;22262;-87
2020/12/04 04:08:33;;;;;;;32.25;14.68;;;;;;;4.52;59.43;98815.38;4425185;32;20138;-89
2020/12/04 04:10:59;;;;;;;33.15;15.27;;;;;;;4.66;59.44;98821.91;4411997;32;20153;-89
2020/12/04 04:13:25;;;;;;;30.00;14.35;;;;;;;4.55;59.43;98817.03;4412413;32;20114;-89
2020/12/04 04:15:50;;;;;;;25.62;13.62;;;;;;;4.53;59.43;98821.38;4412317;32;20090;-89
2020/12/04 04:18:16;;;;;;;32.55;14.27;;;;;;;4.44;59.43;98822.41;4412041;32;21788;-89
2020/12/04 04:20:42;;;;;;;36.15;15.30;;;;;;;4.62;59.44;98818.56;4425357;32;20127;-89
2020/12/04 04:23:07;;;;;;;34.05;16.08;;;;;;;4.40;59.42;98818.19;4425131;32;20093;-89
2020/12/04 04:25:33;;;;;;;28.58;14.63;;;;;;;4.70;59.44;98802.91;4424878;32;20094;-89
2020/12/04 04:27:59;;;;;;;32.10;15.40;;;;;;;4.59;59.44;98798.88;4412135;32;20501;-89
2020/12/04 04:30:24;;;;;;;32.13;14.87;;;;;;;4.61;59.44;98810.00;4411932;32;20097;-89
2020/12/04 04:32:50;;;;;;;28.92;14.32;;;;;;;4.37;59.43;98799.38;4412558;32;20906;-89
2020/12/04 04:35:15;;;;;;;33.90;15.38;;;;;;;4.65;59.44;98792.72;4411998;32;20398;-89
2020/12/04 04:37:42;;;;;;;34.47;15.95;;;;;;;4.88;59.46;98797.31;4412273;32;20138;-89
2020/12/04 04:40:08;;;;;;;31.80;15.85;;;;;;;4.89;59.45;98810.19;4412097;32;20747;-89
2020/12/04 04:42:33;;;;;;;30.88;14.75;;;;;;;5.01;59.46;98815.94;4411116;32;20133;-87
2020/12/04 04:44:58;;;;;;;29.83;14.23;;;;;;;4.90;59.45;98819.63;4411006;32;20097;-87
2020/12/04 04:47:29;;;;;;;32.40;15.48;;;;;;;4.90;59.45;98817.03;4423850;32;20146;-88
2020/12/04 04:49:54;;;;;;;;;;;;;;;4.99;59.46;98821.13;4411689;32;20106;-87
2020/12/04 04:52:19;;;;;;;29.90;13.77;;;;;;;5.00;59.46;98811.66;4411084;32;20008;-88
2020/12/04 04:54:46;;;;;;;29.52;13.95;;;;;;;5.00;59.45;98815.09;4411085;32;20212;-88
2020/12/04 04:57:12;;;;;;;32.72;14.57;;;;;;;4.74;59.44;98804.56;4411817;32;20085;-88
2020/12/04 04:59:38;;;;;;;33.67;16.00;;;;;;;4.93;59.46;98804.06;4437619;32;20124;-88
2020/12/04 05:02:04;;;;;;;30.67;15.60;;;;;;;4.68;59.44;98810.69;4412352;32;20101;-89
2020/12/04 05:04:55;;;;;;;36.00;16.55;;;;;;;4.66;59.44;98803.87;4411676;32;20163;-88
2020/12/04 05:07:33;;;;;;;29.33;14.77;;;;;;;4.87;59.46;98813.69;4437305;32;20082;-87
2020/12/04 05:10:15;;;;;;;33.33;15.32;;;;;;;4.61;59.43;98822.03;4424470;32;20506;-88
2020/12/04 05:12:42;;;;;;;30.20;15.05;;;;;;;4.90;59.45;98818.75;4411647;32;20120;-88
2020/12/04 05:15:21;;;;;;;32.15;15.73;;;;;;;4.82;59.46;98818.09;4411820;32;20514;-87
2020/12/04 05:18:06;;;;;;;28.50;14.15;;;;;;;4.68;59.44;98812.41;4411776;32;20870;-88
2020/12/04 05:20:41;;;;;;;32.33;15.95;;;;;;;4.86;59.44;98810.25;4423919;32;20106;-86
2020/12/04 05:23:07;;;;;;;31.02;14.87;;;;;;;4.70;59.44;98805.50;4422023;32;20109;-86
2020/12/04 05:25:34;;;;;;;34.20;16.33;;;;;;;4.88;59.46;98818.81;4410773;32;20427;-88
2020/12/04 05:28:18;;;;;;;37.05;15.10;;;;;;;4.79;59.45;98828.50;4436291;32;20078;-87
2020/12/04 05:30:46;;;;;;;33.97;16.27;;;;;;;5.06;59.46;98839.88;4436035;32;20117;-90
2020/12/04 05:33:12;;;;;;;37.72;17.10;;;;;;;5.12;59.47;98842.31;4411130;32;21205;-87
2020/12/04 05:35:38;;;;;;;38.92;17.37;;;;;;;4.89;59.45;98842.84;4423589;32;20139;-88
2020/12/04 05:38:23;;;;;;;33.33;16.33;;;;;;;4.88;59.46;98841.16;4424178;32;20158;-89
2020/12/04 05:40:50;;;;;;;31.30;16.58;;;;;;;4.88;59.46;98851.47;4423910;32;20140;-87
2020/12/04 05:43:28;;;;;;;28.10;14.63;;;;;;;4.85;59.45;98849.81;4410326;32;20105;-86
2020/12/04 05:46:12;;;;;;;28.60;14.40;;;;;;;4.98;59.46;98837.50;4422673;32;20077;-87
2020/12/04 05:48:38;;;;;;;29.87;14.05;;;;;;;5.14;59.47;98838.78;4433712;32;20133;-87
2020/12/04 05:51:03;;;;;;;28.92;14.93;;;;;;;5.06;59.46;98837.31;4422264;32;20139;-86
2020/12/04 05:53:28;;;;;;;31.75;14.80;;;;;;;4.94;59.46;98853.91;4422546;32;20145;-87
2020/12/04 05:55:54;;;;;;;32.13;16.15;;;;;;;5.11;59.46;98848.34;4422204;32;20461;-86
2020/12/04 05:58:19;;;;;;;28.50;14.57;;;;;;;4.89;59.45;98842.84;4422680;32;20419;-86
2020/12/04 06:00:45;;;;;;;32.63;15.20;;;;;;;4.83;59.45;98838.69;4408919;32;27438;-87
2020/12/04 06:03:10;;;;;;;30.80;15.32;;;;;;;4.83;59.45;98830.97;4409366;32;20156;-86
2020/12/04 06:05:36;;;;;;;30.80;15.25;;;;;;;4.95;59.46;98834.97;4409164;32;20231;-87
2020/12/04 06:08:03;;;;;;;31.27;16.00;;;;;;;5.02;59.46;98833.97;4408845;32;20089;-87
2020/12/04 06:10:29;;;;;;;30.12;15.45;;;;;;;4.96;59.46;98821.19;4408923;32;20227;-86
2020/12/04 06:12:54;;;;;;;33.17;15.45;;;;;;;5.11;59.47;98843.19;4422225;32;20106;-85
2020/12/04 06:15:32;;;;;;;26.45;14.95;;;;;;;5.01;59.47;98845.16;4422107;32;20137;-86
2020/12/04 06:18:05;;;;;;;32.80;15.82;;;;;;;5.12;59.47;98840.56;4409242;32;20109;-85
2020/12/04 06:20:47;;;;;;;33.17;15.13;;;;;;;5.14;59.47;98848.28;4409004;32;20106;-85
2020/12/04 06:23:16;;;;;;;29.17;15.18;;;;;;;5.19;59.47;98844.69;4408919;32;20093;-86
2020/12/04 06:25:57;;;;;;;32.58;15.88;;;;;;;5.16;59.46;98846.50;4408729;32;20474;-87
2020/12/04 06:28:24;;;;;;;36.70;17.95;;;;;;;5.15;59.46;98853.38;4421584;32;20076;-87
2020/12/04 06:30:59;;;;;;;43.13;19.00;;;;;;;5.06;59.46;98858.78;4421943;32;20451;-86
2020/12/04 06:33:31;;;;;;;35.15;17.35;;;;;;;5.09;59.47;98860.44;4434611;32;20126;-87
2020/12/04 06:35:57;;;;;;;41.80;18.67;;;;;;;5.12;59.47;98861.22;4434674;32;20112;-86
2020/12/04 06:38:35;;;;;;;33.08;15.55;;;;;;;5.35;59.48;98858.06;4408865;32;20146;-86
2020/12/04 06:41:23;;;;;;;30.33;15.32;;;;;;;5.45;59.48;98861.28;4421831;32;20466;-86
2020/12/04 06:43:49;;;;;;;34.97;15.50;;;;;;;5.63;59.49;98850.44;4421472;32;20106;-87
2020/12/04 06:46:34;;;;;;;37.00;16.60;;;;;;;5.54;59.49;98854.12;4409145;32;20210;-87
2020/12/04 06:49:22;;;;;;;32.03;16.25;;;;;;;5.60;59.49;98858.28;4421298;32;20144;-86
2020/12/04 06:51:58;;;;;;;34.40;16.00;;;;;;;5.57;59.49;98858.37;4421564;32;20114;-87
2020/12/04 06:54:23;;;;;;;28.55;14.32;;;;;;;5.68;59.50;98869.28;4421393;32;20205;-86
2020/12/04 06:56:49;;;;;;;29.33;14.45;;;;;;;5.18;59.47;98866.22;4420942;32;20117;-86
2020/12/04 06:59:28;;;;;;;37.75;16.02;;;;;;;5.59;59.49;98866.91;4408172;32;20089;-87
2020/12/04 07:02:23;;;;;;;32.40;15.55;;;;;;;5.51;59.48;98874.03;4420771;32;20101;-85
2020/12/04 07:04:50;;;;;;;37.42;16.55;;;;;;;5.47;59.49;98868.09;4408026;32;20160;-86
2020/12/04 07:07:17;;;;;;;29.55;14.63;;;;;;;5.41;59.48;98854.47;4407926;32;20086;-86
2020/12/04 07:09:50;;;;;;;33.75;15.55;;;;;;;5.48;59.49;98850.87;4408216;32;20085;-85
2020/12/04 07:12:15;;;;;;;29.67;15.68;;;;;;;5.36;59.47;98853.75;4420317;32;20590;-86
2020/12/04 07:14:41;;;;;;;34.28;16.08;;;;;;;5.10;59.46;98862.12;4407703;32;20101;-86
2020/12/04 07:17:07;;;;;;;38.65;17.12;;;;;;;5.28;59.47;98860.84;4407916;32;20450;-86
2020/12/04 07:19:32;;;;;;;33.75;16.70;;;;;;;5.35;59.48;98860.66;4421034;32;20089;-86
2020/12/04 07:21:58;;;;;;;31.20;15.45;;;;;;;5.51;59.48;98868.84;4421656;32;21564;-85
2020/12/04 07:24:23;;;;;;;30.80;15.70;;;;;;;5.32;59.48;98880.53;4421947;32;20481;-83
2020/12/04 07:26:51;;;;;;;36.58;17.73;;;;;;;5.23;59.47;98886.75;4409441;32;20151;-85
2020/12/04 07:29:16;;;;;;;34.65;15.45;;;;;;;5.63;59.50;98886.59;4409503;32;20182;-84
2020/12/04 07:31:46;;;;;;;33.72;15.77;;;;;;;5.57;59.49;98889.34;4409816;32;20145;-86
2020/12/04 07:34:11;;;;;;;;;;;;;;;5.39;59.49;98887.22;4422709;32;20185;-83
2020/12/04 07:36:38;;;;;;;30.37;15.10;;;;;;;5.54;59.49;98887.69;4409394;32;19981;-84
2020/12/04 07:39:03;;;;;;;36.10;17.37;;;;;;;5.45;59.48;98892.25;4422168;32;20216;-84
2020/12/04 07:41:36;;;;;;;32.78;16.90;;;;;;;5.72;59.50;98907.03;4409241;32;20236;-86
2020/12/04 07:44:05;;;;;;;30.10;15.25;;;;;;;5.84;59.51;98898.94;4422114;32;20102;-84
2020/12/04 07:46:30;;;;;;;37.55;15.38;;;;;;;5.87;59.51;98898.00;4421975;32;20080;-84
2020/12/04 07:48:59;;;;;;;33.28;15.75;;;;;;;5.82;59.50;98886.97;4420825;32;20486;-85
2020/12/04 07:51:25;;;;;;;34.97;15.32;;;;;;;5.77;59.50;98889.69;4422690;32;20097;-84
2020/12/04 07:53:50;;;;;;;32.25;15.65;;;;;;;5.77;59.51;98896.56;4421207;32;20447;-85
2020/12/04 07:56:16;;;;;;;35.90;15.15;;;;;;;5.51;59.49;98911.00;4421557;32;20114;-84
2020/12/04 07:58:41;;;;;;;28.73;14.75;;;;;;;5.78;59.51;98891.38;4421036;32;20784;-85
2020/12/04 08:01:06;;;;;;;30.55;15.18;;;;;;;6.09;59.52;98893.16;4408906;32;20159;-83
2020/12/04 08:03:32;;;;;;;29.90;14.90;;;;;;;6.19;59.52;98898.94;4421410;32;20764;-83
2020/12/04 08:06:07;;;;;;;33.50;15.35;;;;;;;6.13;59.53;98899.91;4421432;32;20117;-82
2020/12/04 08:08:33;;;;;;;35.25;17.00;;;;;;;6.11;59.52;98896.53;4421691;32;20155;-85
2020/12/04 08:11:08;;;;;;;32.97;16.67;;;;;;;6.15;59.52;98895.56;4408994;32;20153;-84
2020/12/04 08:13:37;;;;;;;34.30;17.35;;;;;;;6.18;59.52;98902.41;4422360;32;20174;-85
2020/12/04 08:16:07;;;;;;;26.73;14.20;;;;;;;6.34;59.53;98891.56;4422050;32;20112;-85
2020/12/04 08:18:32;;;;;;;36.47;15.32;;;;;;;6.24;59.52;98897.91;4422406;32;20451;-86
2020/12/04 08:21:04;;;;;;;36.58;15.98;;;;;;;5.94;59.51;98888.41;4422326;32;20148;-85
2020/12/04 08:23:30;;;;;;;34.35;15.52;;;;;;;6.19;59.52;98880.84;4408987;32;20480;-86
2020/12/04 08:25:55;;;;;;;36.10;16.45;;;;;;;6.21;59.53;98884.22;4421565;32;20116;-86
2020/12/04 08:28:21;;;;;;;35.17;15.20;;;;;;;6.27;59.53;98881.47;4434015;32;20127;-87
2020/12/04 08:30:46;;;;;;;26.83;13.88;;;;;;;6.15;59.52;98883.50;4421045;32;20149;-87
2020/12/04 08:33:12;;;;;;;30.23;15.07;;;;;;;6.22;59.53;98873.84;4421563;32;20489;-87
2020/12/04 08:35:40;;;;;;;31.70;15.23;;;;;;;6.35;59.54;98872.59;4408617;32;21769;-86
2020/12/04 08:38:07;;;;;;;32.40;15.52;;;;;;;6.24;59.53;98878.97;4421584;32;20203;-84
2020/12/04 08:40:33;;;;;;;35.72;15.90;;;;;;;6.35;59.54;98887.25;4422253;32;20208;-84
2020/12/04 08:43:14;;;;;;;29.42;14.15;;;;;;;6.31;59.53;98889.06;4408813;32;20842;-85
2020/12/04 08:45:41;;;;;;;31.15;15.05;;;;;;;6.34;59.53;98883.81;4435512;32;20892;-85
2020/12/04 08:48:17;;;;;;;29.65;13.77;;;;;;;6.20;59.53;98893.72;4422349;32;20089;-86
2020/12/04 08:50:47;;;;;;;30.70;14.25;;;;;;;6.24;59.53;98897.91;4400994;32;20097;-83
2020/12/04 08:53:16;;;;;;;28.00;13.88;;;;;;;6.40;59.54;98899.16;4420286;32;20113;-83
2020/12/04 08:55:46;;;;;;;28.95;13.90;;;;;;;6.68;59.56;98895.78;4407238;32;20508;-83
2020/12/04 08:58:14;;;;;;;30.20;14.20;;;;;;;6.65;59.54;98899.31;4420870;32;20124;-83
2020/12/04 09:00:40;;;;;;;26.98;14.20;;;;;;;6.74;59.56;98905.94;4408286;32;20105;-83
2020/12/04 09:03:05;;;;;;;27.98;14.25;;;;;;;6.66;59.55;98901.00;4420494;32;20113;-83
2020/12/04 09:05:30;;;;;;;26.77;13.50;;;;;;;6.73;59.56;98899.06;4420583;32;20124;-82
2020/12/04 09:07:56;;;;;;;28.73;13.95;;;;;;;6.59;59.55;98903.78;4420665;32;20150;-83
2020/12/04 09:10:21;;;;;;;25.30;13.62;;;;;;;6.58;59.55;98910.69;4407873;32;20157;-83
2020/12/04 09:12:48;;;;;;;32.03;16.55;;;;;;;6.28;59.53;98909.84;4407425;32;24340;-84
2020/12/04 09:15:15;;;;;;;34.17;15.35;;;;;;;6.59;59.55;98909.81;4407989;32;20094;-84
2020/12/04 09:17:40;;;;;;;26.02;13.45;;;;;;;6.70;59.55;98906.91;4420294;32;20109;-83
2020/12/04 09:20:07;;;;;;;26.75;13.15;;;;;;;6.63;59.54;98908.00;4420640;32;20155;-84
2020/12/04 09:22:32;;;;;;;25.83;13.98;;;;;;;6.46;59.54;98903.31;4407841;32;20530;-83
2020/12/04 09:25:02;;;;;;;30.90;15.10;;;;;;;6.71;59.55;98903.44;4420575;32;20090;-84
2020/12/04 09:27:28;;;;;;;29.10;13.57;;;;;;;6.99;59.57;98904.28;4420648;32;20130;-83
2020/12/04 09:29:53;;;;;;;24.48;12.45;;;;;;;6.98;59.57;98894.84;4407815;32;20206;-83
2020/12/04 09:32:19;;;;;;;24.87;12.40;;;;;;;6.72;59.56;98895.63;4407734;32;20447;-83
2020/12/04 09:34:46;;;;;;;24.83;12.65;;;;;;;7.05;59.57;98885.97;4407762;32;20165;-84
2020/12/04 09:37:27;;;;;;;27.65;13.23;;;;;;;7.02;59.56;98890.41;4420576;32;20116;-84
2020/12/04 09:40:04;;;;;;;29.55;13.82;;;;;;;7.17;59.58;98887.34;4420613;32;20093;-84
2020/12/04 09:42:30;;;;;;;25.65;12.63;;;;;;;7.08;59.57;98880.69;4420609;32;20458;-84
2020/12/04 09:44:56;;;;;;;30.90;13.43;;;;;;;6.83;59.56;98879.78;4407555;32;20105;-84
2020/12/04 09:47:22;;;;;;;27.73;12.55;;;;;;;6.91;59.56;98889.91;4407215;32;20109;-84
2020/12/04 09:49:47;;;;;;;25.58;12.88;;;;;;;6.90;59.56;98889.06;4432661;32;20175;-84
2020/12/04 09:52:13;;;;;;;29.75;14.05;;;;;;;6.77;59.56;98879.97;4407408;32;20442;-84
2020/12/04 09:54:40;;;;;;;27.17;14.07;;;;;;;6.89;59.57;98877.03;4433264;32;20119;-84
2020/12/04 09:57:07;;;;;;;29.75;13.13;;;;;;;7.24;59.58;98868.13;4408437;32;20143;-86
2020/12/04 09:59:32;;;;;;;25.17;12.57;;;;;;;7.21;59.58;98868.22;4420681;32;20110;-84
2020/12/04 10:01:58;;;;;;;28.25;13.07;;;;;;;7.07;59.57;98870.41;4408168;32;20145;-85
2020/12/04 10:04:24;;;;;;;31.08;13.32;;;;;;;7.12;59.58;98862.50;4421025;32;20102;-86
2020/12/04 10:06:50;;;;;;;25.52;13.20;;;;;;;7.21;59.58;98863.03;4420549;32;20112;-86
2020/12/04 10:09:16;;;;;;;26.77;12.88;;;;;;;7.19;59.58;98859.66;4407658;32;20113;-86
2020/12/04 10:11:41;;;;;;;23.60;12.35;;;;;;;7.43;59.60;98862.34;4407726;32;20112;-86
2020/12/04 10:14:07;;;;;;;26.12;13.20;;;;;;;7.34;59.59;98854.00;4421154;32;20105;-86
2020/12/04 10:16:33;;;;;;;25.50;13.20;;;;;;;7.18;59.58;98842.44;4407370;32;20125;-86
2020/12/04 10:19:00;;;;;;;24.10;12.68;;;;;;;7.17;59.57;98837.31;4420812;32;20149;-85
2020/12/04 10:21:27;;;;;;;27.80;12.88;;;;;;;7.34;59.59;98843.66;4420285;32;20152;-88
2020/12/04 10:23:56;;;;;;;24.20;12.37;;;;;;;7.46;59.59;98841.53;4420598;32;20116;-85
2020/12/04 10:26:21;;;;;;;24.15;11.80;;;;;;;7.43;59.60;98844.22;4433439;32;20077;-86
2020/12/04 10:28:52;;;;;;;30.17;13.05;;;;;;;7.37;59.59;98837.50;4420900;32;20132;-87
2020/12/04 10:31:17;;;;;;;;;;;;;;;7.50;59.60;98833.59;4422137;32;20098;-84
2020/12/04 10:33:43;;;;;;;23.90;12.13;;;;;;;7.59;59.60;98833.31;4421618;32;20044;-86
2020/12/04 10:36:10;;;;;;;24.33;12.25;;;;;;;7.56;59.60;98820.44;4420726;32;20205;-87
2020/12/04 10:38:36;;;;;;;24.05;11.02;;;;;;;7.64;59.61;98809.81;4421648;32;20082;-84
2020/12/04 10:41:05;;;;;;;26.17;12.88;;;;;;;7.55;59.60;98813.56;4420458;32;20135;-86
2020/12/04 10:43:31;;;;;;;27.17;14.02;;;;;;;7.76;59.62;98814.56;4421700;32;20077;-84
2020/12/04 10:45:57;;;;;;;136.70;59.38;;;;;;;7.67;59.60;98805.37;4420437;32;20152;-86
2020/12/04 10:48:23;;;;;;;25.83;13.35;;;;;;;7.65;59.60;98814.94;4420680;32;20106;-85
2020/12/04 10:50:48;;;;;;;26.08;13.68;;;;;;;7.66;59.60;98810.63;4420338;32;20664;-84
2020/12/04 10:53:14;;;;;;;23.45;12.07;;;;;;;7.92;59.62;98813.13;4421444;32;20097;-86
2020/12/04 10:55:46;;;;;;;20.35;11.27;;;;;;;7.85;59.62;98803.03;4409243;32;20105;-86
2020/12/04 10:58:14;;;;;;;21.02;10.73;;;;;;;7.34;59.59;98812.59;4422507;32;20118;-86
2020/12/04 11:00:40;;;;;;;21.48;12.15;;;;;;;7.73;59.61;98808.62;4422048;32;20913;-86
2020/12/04 11:03:24;;;;;;;22.67;11.20;;;;;;;7.98;59.62;98809.44;4422375;32;20098;-84
2020/12/04 11:05:50;;;;;;;23.15;11.88;;;;;;;7.99;59.63;98817.16;4421671;32;20120;-85
2020/12/04 11:08:16;;;;;;;22.17;11.95;;;;;;;8.31;59.64;98817.75;4408375;32;20160;-84
2020/12/04 11:10:42;;;;;;;26.15;11.75;;;;;;;8.24;59.64;98821.44;4422632;32;20117;-84
2020/12/04 11:13:09;;;;;;;21.33;10.85;;;;;;;8.01;59.63;98815.38;4421798;32;20134;-84
2020/12/04 11:15:35;;;;;;;24.08;11.98;;;;;;;8.01;59.63;98802.41;4421170;32;20086;-84
2020/12/04 11:18:02;;;;;;;27.77;11.48;;;;;;;8.08;59.63;98815.16;4423043;32;20152;-84
2020/12/04 11:20:31;;;;;;;42.85;20.83;;;;;;;7.85;59.62;98816.00;4421468;32;20135;-84
2020/12/04 11:22:56;;;;;;;31.80;15.05;;;;;;;7.89;59.62;98809.78;4421692;32;20411;-85
2020/12/04 11:25:25;;;;;;;24.42;13.70;;;;;;;8.17;59.63;98805.28;4421312;32;20171;-84
2020/12/04 11:27:52;;;;;;;18.60;9.38;;;;;;;8.10;59.63;98808.16;4421446;32;20102;-85